sensor_id;sensor_type;location;lat;lon;timestamp;P1;durP1;ratioP1;P2;durP2;ratioP2
67108;SDS011;54027;50.786;7.058;2024-03-02T00:02:13;3.15;;;1.80;;
67108;SDS011;54027;50.786;7.058;2024-03-02T00:04:44;2.78;;;1.65;;
67108;SDS011;54027;50.786;7.058;2024-03-02T00:07:10;3.28;;;1.60;;
67108;SDS011;54027;50.786;7.058;2024-03-02T00:09:39;2.95;;;1.90;;
67108;SDS011;54027;50.786;7.058;2024-03-02T00:12:05;2.15;;;1.58;;
67108;SDS011;54027;50.786;7.058;2024-03-02T00:14:30;2.03;;;1.35;;
67108;SDS011;54027;50.786;7.058;2024-03-02T00:16:56;2.38;;;1.42;;
67108;SDS011;54027;50.786;7.058;2024-03-02T00:19:22;4.50;;;1.60;;
67108;SDS011;54027;50.786;7.058;2024-03-02T00:21:47;3.63;;;1.73;;
67108;SDS011;54027;50.786;7.058;2024-03-02T00:24:24;3.50;;;1.92;;
67108;SDS011;54027;50.786;7.058;2024-03-02T00:27:00;3.08;;;1.70;;
67108;SDS011;54027;50.786;7.058;2024-03-02T00:29:28;5.55;;;1.67;;
67108;SDS011;54027;50.786;7.058;2024-03-02T00:31:54;3.63;;;1.50;;
67108;SDS011;54027;50.786;7.058;2024-03-02T00:34:20;4.80;;;1.58;;
67108;SDS011;54027;50.786;7.058;2024-03-02T00:36:47;2.70;;;1.70;;
67108;SDS011;54027;50.786;7.058;2024-03-02T00:39:13;4.18;;;1.77;;
67108;SDS011;54027;50.786;7.058;2024-03-02T00:41:40;2.97;;;1.60;;
67108;SDS011;54027;50.786;7.058;2024-03-02T00:44:07;3.05;;;1.70;;
67108;SDS011;54027;50.786;7.058;2024-03-02T00:46:37;3.95;;;1.40;;
67108;SDS011;54027;50.786;7.058;2024-03-02T00:49:17;3.30;;;1.67;;
67108;SDS011;54027;50.786;7.058;2024-03-02T00:51:46;2.50;;;1.40;;
67108;SDS011;54027;50.786;7.058;2024-03-02T00:54:15;2.05;;;1.45;;
67108;SDS011;54027;50.786;7.058;2024-03-02T00:56:45;3.35;;;1.90;;
67108;SDS011;54027;50.786;7.058;2024-03-02T00:59:12;2.42;;;1.20;;
67108;SDS011;54027;50.786;7.058;2024-03-02T01:01:37;4.93;;;1.70;;
67108;SDS011;54027;50.786;7.058;2024-03-02T01:04:03;1.98;;;1.33;;
67108;SDS011;54027;50.786;7.058;2024-03-02T01:06:28;3.42;;;1.67;;
67108;SDS011;54027;50.786;7.058;2024-03-02T01:08:54;3.40;;;1.40;;
67108;SDS011;54027;50.786;7.058;2024-03-02T01:11:19;1.83;;;1.15;;
67108;SDS011;54027;50.786;7.058;2024-03-02T01:13:48;3.60;;;1.20;;
67108;SDS011;54027;50.786;7.058;2024-03-02T01:16:13;2.10;;;1.30;;
67108;SDS011;54027;50.786;7.058;2024-03-02T01:18:39;3.28;;;1.55;;
67108;SDS011;54027;50.786;7.058;2024-03-02T01:21:05;2.22;;;1.42;;
67108;SDS011;54027;50.786;7.058;2024-03-02T01:23:30;3.13;;;1.20;;
67108;SDS011;54027;50.786;7.058;2024-03-02T01:25:56;2.45;;;1.50;;
67108;SDS011;54027;50.786;7.058;2024-03-02T01:28:21;1.45;;;1.30;;
67108;SDS011;54027;50.786;7.058;2024-03-02T01:30:46;1.90;;;1.10;;
67108;SDS011;54027;50.786;7.058;2024-03-02T01:33:12;1.90;;;1.30;;
67108;SDS011;54027;50.786;7.058;2024-03-02T01:35:37;2.28;;;0.95;;
67108;SDS011;54027;50.786;7.058;2024-03-02T01:38:03;1.90;;;1.10;;
67108;SDS011;54027;50.786;7.058;2024-03-02T01:40:31;2.42;;;1.40;;
67108;SDS011;54027;50.786;7.058;2024-03-02T01:42:59;3.92;;;1.60;;
67108;SDS011;54027;50.786;7.058;2024-03-02T01:45:25;2.05;;;1.30;;
67108;SDS011;54027;50.786;7.058;2024-03-02T01:47:51;3.17;;;1.25;;
67108;SDS011;54027;50.786;7.058;2024-03-02T01:50:31;1.70;;;1.08;;
67108;SDS011;54027;50.786;7.058;2024-03-02T01:52:57;2.90;;;1.67;;
67108;SDS011;54027;50.786;7.058;2024-03-02T01:55:23;3.85;;;1.60;;
67108;SDS011;54027;50.786;7.058;2024-03-02T01:57:50;2.28;;;1.30;;
67108;SDS011;54027;50.786;7.058;2024-03-02T02:00:17;2.53;;;1.05;;
67108;SDS011;54027;50.786;7.058;2024-03-02T02:02:43;4.20;;;1.38;;
67108;SDS011;54027;50.786;7.058;2024-03-02T02:05:09;2.10;;;1.23;;
67108;SDS011;54027;50.786;7.058;2024-03-02T02:07:35;3.53;;;1.33;;
67108;SDS011;54027;50.786;7.058;2024-03-02T02:10:00;3.55;;;1.35;;
67108;SDS011;54027;50.786;7.058;2024-03-02T02:12:26;1.77;;;1.10;;
67108;SDS011;54027;50.786;7.058;2024-03-02T02:14:51;2.67;;;1.45;;
67108;SDS011;54027;50.786;7.058;2024-03-02T02:17:17;3.47;;;1.00;;
67108;SDS011;54027;50.786;7.058;2024-03-02T02:19:42;3.33;;;1.33;;
67108;SDS011;54027;50.786;7.058;2024-03-02T02:22:11;2.78;;;1.20;;
67108;SDS011;54027;50.786;7.058;2024-03-02T02:24:39;3.58;;;1.30;;
67108;SDS011;54027;50.786;7.058;2024-03-02T02:27:06;1.42;;;1.10;;
67108;SDS011;54027;50.786;7.058;2024-03-02T02:29:31;2.08;;;1.35;;
67108;SDS011;54027;50.786;7.058;2024-03-02T02:31:57;2.78;;;1.40;;
67108;SDS011;54027;50.786;7.058;2024-03-02T02:34:22;1.88;;;1.40;;
67108;SDS011;54027;50.786;7.058;2024-03-02T02:36:47;1.88;;;1.17;;
67108;SDS011;54027;50.786;7.058;2024-03-02T02:39:14;2.50;;;1.17;;
67108;SDS011;54027;50.786;7.058;2024-03-02T02:41:42;2.75;;;1.35;;
67108;SDS011;54027;50.786;7.058;2024-03-02T02:44:07;3.05;;;1.30;;
67108;SDS011;54027;50.786;7.058;2024-03-02T02:46:33;2.20;;;1.30;;
67108;SDS011;54027;50.786;7.058;2024-03-02T02:48:58;1.55;;;1.25;;
67108;SDS011;54027;50.786;7.058;2024-03-02T02:51:24;1.40;;;1.20;;
67108;SDS011;54027;50.786;7.058;2024-03-02T02:53:50;2.78;;;1.52;;
67108;SDS011;54027;50.786;7.058;2024-03-02T02:56:16;3.30;;;1.40;;
67108;SDS011;54027;50.786;7.058;2024-03-02T02:58:41;3.22;;;1.40;;
67108;SDS011;54027;50.786;7.058;2024-03-02T03:01:07;1.92;;;1.40;;
67108;SDS011;54027;50.786;7.058;2024-03-02T03:03:33;4.13;;;1.42;;
67108;SDS011;54027;50.786;7.058;2024-03-02T03:05:58;2.22;;;1.27;;
67108;SDS011;54027;50.786;7.058;2024-03-02T03:08:23;2.72;;;1.50;;
67108;SDS011;54027;50.786;7.058;2024-03-02T03:10:49;3.33;;;1.60;;
67108;SDS011;54027;50.786;7.058;2024-03-02T03:13:14;2.90;;;1.65;;
67108;SDS011;54027;50.786;7.058;2024-03-02T03:15:40;3.17;;;1.67;;
67108;SDS011;54027;50.786;7.058;2024-03-02T03:18:05;2.22;;;1.40;;
67108;SDS011;54027;50.786;7.058;2024-03-02T03:20:32;2.50;;;1.20;;
67108;SDS011;54027;50.786;7.058;2024-03-02T03:22:58;4.53;;;3.38;;
67108;SDS011;54027;50.786;7.058;2024-03-02T03:25:24;2.60;;;1.63;;
67108;SDS011;54027;50.786;7.058;2024-03-02T03:27:49;2.60;;;1.52;;
67108;SDS011;54027;50.786;7.058;2024-03-02T03:30:17;3.10;;;1.50;;
67108;SDS011;54027;50.786;7.058;2024-03-02T03:32:42;2.45;;;1.50;;
67108;SDS011;54027;50.786;7.058;2024-03-02T03:35:08;3.13;;;1.40;;
67108;SDS011;54027;50.786;7.058;2024-03-02T03:37:33;2.92;;;1.40;;
67108;SDS011;54027;50.786;7.058;2024-03-02T03:39:59;2.25;;;1.50;;
67108;SDS011;54027;50.786;7.058;2024-03-02T03:42:26;2.92;;;1.10;;
67108;SDS011;54027;50.786;7.058;2024-03-02T03:44:51;2.92;;;1.50;;
67108;SDS011;54027;50.786;7.058;2024-03-02T03:47:17;3.70;;;1.55;;
67108;SDS011;54027;50.786;7.058;2024-03-02T03:49:42;2.35;;;1.25;;
67108;SDS011;54027;50.786;7.058;2024-03-02T03:52:08;4.25;;;1.38;;
67108;SDS011;54027;50.786;7.058;2024-03-02T03:54:33;4.53;;;1.80;;
67108;SDS011;54027;50.786;7.058;2024-03-02T03:56:58;3.58;;;1.52;;
67108;SDS011;54027;50.786;7.058;2024-03-02T03:59:24;1.48;;;1.02;;
67108;SDS011;54027;50.786;7.058;2024-03-02T04:01:49;4.15;;;1.73;;
67108;SDS011;54027;50.786;7.058;2024-03-02T04:04:15;3.15;;;1.63;;
67108;SDS011;54027;50.786;7.058;2024-03-02T04:06:40;2.63;;;1.55;;
67108;SDS011;54027;50.786;7.058;2024-03-02T04:09:05;3.58;;;1.85;;
67108;SDS011;54027;50.786;7.058;2024-03-02T04:11:31;2.60;;;1.40;;
67108;SDS011;54027;50.786;7.058;2024-03-02T04:13:56;4.13;;;1.50;;
67108;SDS011;54027;50.786;7.058;2024-03-02T04:16:22;3.90;;;1.42;;
67108;SDS011;54027;50.786;7.058;2024-03-02T04:18:47;3.05;;;1.70;;
67108;SDS011;54027;50.786;7.058;2024-03-02T04:21:13;3.45;;;1.58;;
67108;SDS011;54027;50.786;7.058;2024-03-02T04:23:38;3.88;;;1.90;;
67108;SDS011;54027;50.786;7.058;2024-03-02T04:26:04;3.85;;;1.60;;
67108;SDS011;54027;50.786;7.058;2024-03-02T04:28:29;2.58;;;1.45;;
67108;SDS011;54027;50.786;7.058;2024-03-02T04:30:54;1.90;;;1.33;;
67108;SDS011;54027;50.786;7.058;2024-03-02T04:33:20;2.72;;;1.73;;
67108;SDS011;54027;50.786;7.058;2024-03-02T04:35:45;2.30;;;1.52;;
67108;SDS011;54027;50.786;7.058;2024-03-02T04:38:11;2.80;;;1.35;;
67108;SDS011;54027;50.786;7.058;2024-03-02T04:40:37;4.20;;;1.88;;
67108;SDS011;54027;50.786;7.058;2024-03-02T04:43:02;2.88;;;1.48;;
67108;SDS011;54027;50.786;7.058;2024-03-02T04:45:28;3.65;;;1.60;;
67108;SDS011;54027;50.786;7.058;2024-03-02T04:47:54;2.42;;;1.48;;
67108;SDS011;54027;50.786;7.058;2024-03-02T04:50:19;2.55;;;1.33;;
67108;SDS011;54027;50.786;7.058;2024-03-02T04:52:44;2.65;;;1.60;;
67108;SDS011;54027;50.786;7.058;2024-03-02T04:55:10;2.40;;;1.25;;
67108;SDS011;54027;50.786;7.058;2024-03-02T04:57:49;5.90;;;1.80;;
67108;SDS011;54027;50.786;7.058;2024-03-02T05:00:16;3.42;;;1.30;;
67108;SDS011;54027;50.786;7.058;2024-03-02T05:02:42;2.50;;;1.70;;
67108;SDS011;54027;50.786;7.058;2024-03-02T05:05:07;3.25;;;1.65;;
67108;SDS011;54027;50.786;7.058;2024-03-02T05:07:33;5.65;;;1.67;;
67108;SDS011;54027;50.786;7.058;2024-03-02T05:09:58;5.25;;;1.90;;
67108;SDS011;54027;50.786;7.058;2024-03-02T05:12:24;2.58;;;1.65;;
67108;SDS011;54027;50.786;7.058;2024-03-02T05:15:08;2.40;;;1.33;;
67108;SDS011;54027;50.786;7.058;2024-03-02T05:17:37;3.33;;;1.75;;
67108;SDS011;54027;50.786;7.058;2024-03-02T05:20:03;2.53;;;1.58;;
67108;SDS011;54027;50.786;7.058;2024-03-02T05:22:30;3.25;;;1.88;;
67108;SDS011;54027;50.786;7.058;2024-03-02T05:24:56;3.90;;;1.80;;
67108;SDS011;54027;50.786;7.058;2024-03-02T05:27:21;2.35;;;1.70;;
67108;SDS011;54027;50.786;7.058;2024-03-02T05:29:47;3.00;;;1.73;;
67108;SDS011;54027;50.786;7.058;2024-03-02T05:32:12;4.07;;;1.75;;
67108;SDS011;54027;50.786;7.058;2024-03-02T05:34:37;5.18;;;2.33;;
67108;SDS011;54027;50.786;7.058;2024-03-02T05:37:03;2.38;;;1.85;;
67108;SDS011;54027;50.786;7.058;2024-03-02T05:39:28;3.63;;;1.95;;
67108;SDS011;54027;50.786;7.058;2024-03-02T05:41:53;3.85;;;2.20;;
67108;SDS011;54027;50.786;7.058;2024-03-02T05:44:19;3.03;;;2.03;;
67108;SDS011;54027;50.786;7.058;2024-03-02T05:46:44;4.47;;;2.08;;
67108;SDS011;54027;50.786;7.058;2024-03-02T05:49:10;5.55;;;2.13;;
67108;SDS011;54027;50.786;7.058;2024-03-02T05:51:35;3.58;;;2.30;;
67108;SDS011;54027;50.786;7.058;2024-03-02T05:54:01;2.60;;;1.77;;
67108;SDS011;54027;50.786;7.058;2024-03-02T05:56:27;4.38;;;2.47;;
67108;SDS011;54027;50.786;7.058;2024-03-02T05:58:52;2.55;;;2.03;;
67108;SDS011;54027;50.786;7.058;2024-03-02T06:01:36;4.53;;;2.22;;
67108;SDS011;54027;50.786;7.058;2024-03-02T06:04:01;5.25;;;2.60;;
67108;SDS011;54027;50.786;7.058;2024-03-02T06:06:27;4.70;;;2.15;;
67108;SDS011;54027;50.786;7.058;2024-03-02T06:08:53;4.82;;;2.05;;
67108;SDS011;54027;50.786;7.058;2024-03-02T06:11:21;5.15;;;2.13;;
67108;SDS011;54027;50.786;7.058;2024-03-02T06:13:47;3.70;;;2.20;;
67108;SDS011;54027;50.786;7.058;2024-03-02T06:16:13;4.63;;;2.05;;
67108;SDS011;54027;50.786;7.058;2024-03-02T06:18:38;5.75;;;2.28;;
67108;SDS011;54027;50.786;7.058;2024-03-02T06:21:04;4.10;;;2.30;;
67108;SDS011;54027;50.786;7.058;2024-03-02T06:23:29;3.55;;;2.30;;
67108;SDS011;54027;50.786;7.058;2024-03-02T06:25:55;4.60;;;2.75;;
67108;SDS011;54027;50.786;7.058;2024-03-02T06:28:20;4.25;;;2.10;;
67108;SDS011;54027;50.786;7.058;2024-03-02T06:30:46;4.47;;;2.10;;
67108;SDS011;54027;50.786;7.058;2024-03-02T06:33:11;4.22;;;2.55;;
67108;SDS011;54027;50.786;7.058;2024-03-02T06:35:37;4.22;;;2.47;;
67108;SDS011;54027;50.786;7.058;2024-03-02T06:38:02;4.70;;;2.90;;
67108;SDS011;54027;50.786;7.058;2024-03-02T06:40:28;5.22;;;2.45;;
67108;SDS011;54027;50.786;7.058;2024-03-02T06:42:53;5.03;;;2.20;;
67108;SDS011;54027;50.786;7.058;2024-03-02T06:45:19;5.13;;;3.13;;
67108;SDS011;54027;50.786;7.058;2024-03-02T06:47:44;3.95;;;2.50;;
67108;SDS011;54027;50.786;7.058;2024-03-02T06:50:10;6.55;;;3.28;;
67108;SDS011;54027;50.786;7.058;2024-03-02T06:52:36;4.88;;;2.70;;
67108;SDS011;54027;50.786;7.058;2024-03-02T06:55:01;6.45;;;3.55;;
67108;SDS011;54027;50.786;7.058;2024-03-02T06:57:27;5.60;;;2.55;;
67108;SDS011;54027;50.786;7.058;2024-03-02T06:59:52;4.30;;;2.90;;
67108;SDS011;54027;50.786;7.058;2024-03-02T07:02:22;4.18;;;3.13;;
67108;SDS011;54027;50.786;7.058;2024-03-02T07:04:48;5.18;;;2.60;;
67108;SDS011;54027;50.786;7.058;2024-03-02T07:07:13;5.32;;;2.67;;
67108;SDS011;54027;50.786;7.058;2024-03-02T07:09:39;3.83;;;2.30;;
67108;SDS011;54027;50.786;7.058;2024-03-02T07:12:04;5.60;;;2.28;;
67108;SDS011;54027;50.786;7.058;2024-03-02T07:14:30;4.38;;;2.25;;
67108;SDS011;54027;50.786;7.058;2024-03-02T07:17:14;3.42;;;2.00;;
67108;SDS011;54027;50.786;7.058;2024-03-02T07:19:40;5.05;;;2.78;;
67108;SDS011;54027;50.786;7.058;2024-03-02T07:22:06;4.63;;;3.25;;
67108;SDS011;54027;50.786;7.058;2024-03-02T07:24:33;6.80;;;3.38;;
67108;SDS011;54027;50.786;7.058;2024-03-02T07:27:04;5.10;;;2.78;;
67108;SDS011;54027;50.786;7.058;2024-03-02T07:29:30;4.40;;;2.80;;
67108;SDS011;54027;50.786;7.058;2024-03-02T07:31:55;4.93;;;2.88;;
67108;SDS011;54027;50.786;7.058;2024-03-02T07:34:21;4.75;;;2.75;;
67108;SDS011;54027;50.786;7.058;2024-03-02T07:36:46;4.53;;;2.58;;
67108;SDS011;54027;50.786;7.058;2024-03-02T07:39:12;4.57;;;2.95;;
67108;SDS011;54027;50.786;7.058;2024-03-02T07:41:37;6.72;;;2.80;;
67108;SDS011;54027;50.786;7.058;2024-03-02T07:44:03;4.15;;;2.53;;
67108;SDS011;54027;50.786;7.058;2024-03-02T07:46:28;5.15;;;2.33;;
67108;SDS011;54027;50.786;7.058;2024-03-02T07:48:54;6.53;;;2.20;;
67108;SDS011;54027;50.786;7.058;2024-03-02T07:51:19;5.30;;;2.45;;
67108;SDS011;54027;50.786;7.058;2024-03-02T07:53:45;4.78;;;2.80;;
67108;SDS011;54027;50.786;7.058;2024-03-02T07:56:10;5.63;;;3.08;;
67108;SDS011;54027;50.786;7.058;2024-03-02T07:58:35;4.30;;;3.08;;
67108;SDS011;54027;50.786;7.058;2024-03-02T08:01:01;6.95;;;2.92;;
67108;SDS011;54027;50.786;7.058;2024-03-02T08:03:27;4.43;;;2.97;;
67108;SDS011;54027;50.786;7.058;2024-03-02T08:05:52;4.63;;;2.35;;
67108;SDS011;54027;50.786;7.058;2024-03-02T08:08:18;4.05;;;2.58;;
67108;SDS011;54027;50.786;7.058;2024-03-02T08:10:43;4.20;;;2.63;;
67108;SDS011;54027;50.786;7.058;2024-03-02T08:13:09;5.25;;;3.20;;
67108;SDS011;54027;50.786;7.058;2024-03-02T08:15:34;3.88;;;2.55;;
67108;SDS011;54027;50.786;7.058;2024-03-02T08:17:59;4.05;;;2.63;;
67108;SDS011;54027;50.786;7.058;2024-03-02T08:20:25;7.28;;;2.42;;
67108;SDS011;54027;50.786;7.058;2024-03-02T08:22:50;5.45;;;2.50;;
67108;SDS011;54027;50.786;7.058;2024-03-02T08:25:16;4.13;;;2.60;;
67108;SDS011;54027;50.786;7.058;2024-03-02T08:27:41;5.13;;;2.13;;
67108;SDS011;54027;50.786;7.058;2024-03-02T08:30:07;4.63;;;2.17;;
67108;SDS011;54027;50.786;7.058;2024-03-02T08:32:35;3.78;;;2.00;;
67108;SDS011;54027;50.786;7.058;2024-03-02T08:35:01;6.18;;;2.20;;
67108;SDS011;54027;50.786;7.058;2024-03-02T08:37:26;6.53;;;2.38;;
67108;SDS011;54027;50.786;7.058;2024-03-02T08:39:52;9.27;;;2.38;;
67108;SDS011;54027;50.786;7.058;2024-03-02T08:42:17;3.22;;;1.98;;
67108;SDS011;54027;50.786;7.058;2024-03-02T08:44:42;4.53;;;2.08;;
67108;SDS011;54027;50.786;7.058;2024-03-02T08:47:08;6.22;;;2.05;;
67108;SDS011;54027;50.786;7.058;2024-03-02T08:49:34;5.05;;;2.42;;
67108;SDS011;54027;50.786;7.058;2024-03-02T08:52:00;9.75;;;2.70;;
67108;SDS011;54027;50.786;7.058;2024-03-02T08:54:25;3.40;;;2.08;;
67108;SDS011;54027;50.786;7.058;2024-03-02T08:56:51;6.00;;;2.22;;
67108;SDS011;54027;50.786;7.058;2024-03-02T08:59:16;5.93;;;2.33;;
67108;SDS011;54027;50.786;7.058;2024-03-02T09:01:42;3.92;;;2.55;;
67108;SDS011;54027;50.786;7.058;2024-03-02T09:04:08;4.55;;;1.90;;
67108;SDS011;54027;50.786;7.058;2024-03-02T09:06:34;2.55;;;1.90;;
67108;SDS011;54027;50.786;7.058;2024-03-02T09:08:59;4.60;;;2.33;;
67108;SDS011;54027;50.786;7.058;2024-03-02T09:11:25;4.95;;;2.28;;
67108;SDS011;54027;50.786;7.058;2024-03-02T09:13:51;5.82;;;2.03;;
67108;SDS011;54027;50.786;7.058;2024-03-02T09:16:16;3.35;;;1.90;;
67108;SDS011;54027;50.786;7.058;2024-03-02T09:18:42;3.80;;;2.00;;
67108;SDS011;54027;50.786;7.058;2024-03-02T09:21:07;3.58;;;2.03;;
67108;SDS011;54027;50.786;7.058;2024-03-02T09:23:33;3.70;;;1.65;;
67108;SDS011;54027;50.786;7.058;2024-03-02T09:25:59;5.03;;;1.95;;
67108;SDS011;54027;50.786;7.058;2024-03-02T09:28:24;6.45;;;2.30;;
67108;SDS011;54027;50.786;7.058;2024-03-02T09:30:50;3.30;;;1.67;;
67108;SDS011;54027;50.786;7.058;2024-03-02T09:33:15;5.45;;;2.00;;
67108;SDS011;54027;50.786;7.058;2024-03-02T09:35:40;6.03;;;2.20;;
67108;SDS011;54027;50.786;7.058;2024-03-02T09:38:06;3.78;;;1.80;;
67108;SDS011;54027;50.786;7.058;2024-03-02T09:40:31;3.33;;;2.13;;
67108;SDS011;54027;50.786;7.058;2024-03-02T09:42:57;3.58;;;1.80;;
67108;SDS011;54027;50.786;7.058;2024-03-02T09:45:23;3.53;;;1.70;;
67108;SDS011;54027;50.786;7.058;2024-03-02T09:47:49;4.63;;;1.67;;
67108;SDS011;54027;50.786;7.058;2024-03-02T09:50:15;3.85;;;2.03;;
67108;SDS011;54027;50.786;7.058;2024-03-02T09:52:42;3.17;;;2.35;;
67108;SDS011;54027;50.786;7.058;2024-03-02T09:55:08;3.10;;;1.75;;
67108;SDS011;54027;50.786;7.058;2024-03-02T09:57:34;4.85;;;2.03;;
67108;SDS011;54027;50.786;7.058;2024-03-02T09:59:59;3.40;;;2.05;;
67108;SDS011;54027;50.786;7.058;2024-03-02T10:02:24;6.25;;;2.20;;
67108;SDS011;54027;50.786;7.058;2024-03-02T10:04:50;5.00;;;3.05;;
67108;SDS011;54027;50.786;7.058;2024-03-02T10:07:16;4.15;;;1.80;;
67108;SDS011;54027;50.786;7.058;2024-03-02T10:09:43;6.70;;;1.90;;
67108;SDS011;54027;50.786;7.058;2024-03-02T10:12:12;5.20;;;1.73;;
67108;SDS011;54027;50.786;7.058;2024-03-02T10:14:39;4.10;;;1.90;;
67108;SDS011;54027;50.786;7.058;2024-03-02T10:17:13;3.88;;;2.08;;
67108;SDS011;54027;50.786;7.058;2024-03-02T10:19:40;6.15;;;2.30;;
67108;SDS011;54027;50.786;7.058;2024-03-02T10:22:07;5.05;;;2.33;;
67108;SDS011;54027;50.786;7.058;2024-03-02T10:24:37;4.57;;;2.08;;
67108;SDS011;54027;50.786;7.058;2024-03-02T10:27:10;7.80;;;2.28;;
67108;SDS011;54027;50.786;7.058;2024-03-02T10:29:40;5.20;;;1.80;;
67108;SDS011;54027;50.786;7.058;2024-03-02T10:32:08;5.10;;;1.52;;
67108;SDS011;54027;50.786;7.058;2024-03-02T10:34:36;3.58;;;1.48;;
67108;SDS011;54027;50.786;7.058;2024-03-02T10:37:05;4.97;;;2.22;;
67108;SDS011;54027;50.786;7.058;2024-03-02T10:39:31;4.75;;;2.10;;
67108;SDS011;54027;50.786;7.058;2024-03-02T10:41:57;7.28;;;2.85;;
67108;SDS011;54027;50.786;7.058;2024-03-02T10:44:23;3.50;;;2.00;;
67108;SDS011;54027;50.786;7.058;2024-03-02T10:46:51;4.28;;;1.80;;
67108;SDS011;54027;50.786;7.058;2024-03-02T10:49:19;2.65;;;1.58;;
67108;SDS011;54027;50.786;7.058;2024-03-02T10:51:46;4.85;;;2.25;;
67108;SDS011;54027;50.786;7.058;2024-03-02T10:54:12;5.85;;;2.13;;
67108;SDS011;54027;50.786;7.058;2024-03-02T10:56:40;5.22;;;1.85;;
67108;SDS011;54027;50.786;7.058;2024-03-02T11:01:58;4.85;;;2.05;;
67108;SDS011;54027;50.786;7.058;2024-03-02T11:04:25;4.22;;;2.35;;
67108;SDS011;54027;50.786;7.058;2024-03-02T11:06:54;4.22;;;1.90;;
67108;SDS011;54027;50.786;7.058;2024-03-02T11:09:25;3.47;;;1.83;;
67108;SDS011;54027;50.786;7.058;2024-03-02T11:12:13;2.78;;;1.77;;
67108;SDS011;54027;50.786;7.058;2024-03-02T11:14:41;4.13;;;1.52;;
67108;SDS011;54027;50.786;7.058;2024-03-02T11:17:13;3.42;;;1.70;;
67108;SDS011;54027;50.786;7.058;2024-03-02T11:19:43;3.08;;;1.63;;
67108;SDS011;54027;50.786;7.058;2024-03-02T11:22:10;2.50;;;1.50;;
67108;SDS011;54027;50.786;7.058;2024-03-02T11:24:36;3.75;;;1.75;;
67108;SDS011;54027;50.786;7.058;2024-03-02T11:27:02;5.70;;;2.10;;
67108;SDS011;54027;50.786;7.058;2024-03-02T11:34:39;5.40;;;1.83;;
67108;SDS011;54027;50.786;7.058;2024-03-02T11:37:10;2.00;;;1.25;;
67108;SDS011;54027;50.786;7.058;2024-03-02T11:39:37;2.63;;;1.30;;
67108;SDS011;54027;50.786;7.058;2024-03-02T11:42:05;5.57;;;1.42;;
67108;SDS011;54027;50.786;7.058;2024-03-02T11:44:32;1.67;;;1.20;;
67108;SDS011;54027;50.786;7.058;2024-03-02T11:46:58;2.72;;;1.30;;
67108;SDS011;54027;50.786;7.058;2024-03-02T11:49:46;4.13;;;1.45;;
67108;SDS011;54027;50.786;7.058;2024-03-02T11:52:19;2.00;;;1.10;;
67108;SDS011;54027;50.786;7.058;2024-03-02T11:54:47;4.28;;;1.33;;
67108;SDS011;54027;50.786;7.058;2024-03-02T11:57:22;3.08;;;1.30;;
67108;SDS011;54027;50.786;7.058;2024-03-02T11:59:48;5.70;;;1.10;;
67108;SDS011;54027;50.786;7.058;2024-03-02T12:02:20;2.97;;;1.30;;
67108;SDS011;54027;50.786;7.058;2024-03-02T12:04:47;3.45;;;1.20;;
67108;SDS011;54027;50.786;7.058;2024-03-02T12:07:22;2.63;;;1.20;;
67108;SDS011;54027;50.786;7.058;2024-03-02T12:10:01;2.40;;;1.10;;
67108;SDS011;54027;50.786;7.058;2024-03-02T12:12:28;1.35;;;0.80;;
67108;SDS011;54027;50.786;7.058;2024-03-02T12:14:53;0.93;;;0.77;;
67108;SDS011;54027;50.786;7.058;2024-03-02T12:17:20;2.28;;;1.10;;
67108;SDS011;54027;50.786;7.058;2024-03-02T12:19:47;1.98;;;0.90;;
67108;SDS011;54027;50.786;7.058;2024-03-02T12:22:12;4.25;;;1.15;;
67108;SDS011;54027;50.786;7.058;2024-03-02T12:24:38;3.30;;;1.08;;
67108;SDS011;54027;50.786;7.058;2024-03-02T12:27:04;2.03;;;0.98;;
67108;SDS011;54027;50.786;7.058;2024-03-02T12:29:32;2.70;;;1.20;;
67108;SDS011;54027;50.786;7.058;2024-03-02T12:31:57;2.22;;;1.20;;
67108;SDS011;54027;50.786;7.058;2024-03-02T12:34:23;2.88;;;1.10;;
67108;SDS011;54027;50.786;7.058;2024-03-02T12:36:49;6.90;;;1.58;;
67108;SDS011;54027;50.786;7.058;2024-03-02T12:39:17;1.15;;;0.80;;
67108;SDS011;54027;50.786;7.058;2024-03-02T12:41:45;2.08;;;1.00;;
67108;SDS011;54027;50.786;7.058;2024-03-02T12:44:11;1.85;;;0.80;;
67108;SDS011;54027;50.786;7.058;2024-03-02T12:46:37;1.25;;;0.82;;
67108;SDS011;54027;50.786;7.058;2024-03-02T12:49:09;2.75;;;1.08;;
67108;SDS011;54027;50.786;7.058;2024-03-02T12:51:36;1.42;;;0.85;;
67108;SDS011;54027;50.786;7.058;2024-03-02T12:54:05;1.45;;;0.90;;
67108;SDS011;54027;50.786;7.058;2024-03-02T12:56:31;5.35;;;1.60;;
67108;SDS011;54027;50.786;7.058;2024-03-02T12:58:57;3.78;;;1.13;;
67108;SDS011;54027;50.786;7.058;2024-03-02T13:01:23;3.03;;;1.10;;
67108;SDS011;54027;50.786;7.058;2024-03-02T13:03:49;1.45;;;1.00;;
67108;SDS011;54027;50.786;7.058;2024-03-02T13:06:16;1.20;;;0.80;;
67108;SDS011;54027;50.786;7.058;2024-03-02T13:08:42;1.83;;;0.90;;
67108;SDS011;54027;50.786;7.058;2024-03-02T13:11:09;3.38;;;1.27;;
67108;SDS011;54027;50.786;7.058;2024-03-02T13:13:35;2.83;;;1.27;;
67108;SDS011;54027;50.786;7.058;2024-03-02T13:16:00;5.07;;;0.90;;
67108;SDS011;54027;50.786;7.058;2024-03-02T13:18:26;1.85;;;0.95;;
67108;SDS011;54027;50.786;7.058;2024-03-02T13:20:53;1.73;;;1.02;;
67108;SDS011;54027;50.786;7.058;2024-03-02T13:23:21;3.15;;;1.30;;
67108;SDS011;54027;50.786;7.058;2024-03-02T13:25:46;1.98;;;0.80;;
67108;SDS011;54027;50.786;7.058;2024-03-02T13:28:12;2.17;;;0.90;;
67108;SDS011;54027;50.786;7.058;2024-03-02T13:30:38;0.95;;;0.63;;
67108;SDS011;54027;50.786;7.058;2024-03-02T13:33:03;1.65;;;0.80;;
67108;SDS011;54027;50.786;7.058;2024-03-02T13:35:29;2.90;;;1.00;;
67108;SDS011;54027;50.786;7.058;2024-03-02T13:37:54;2.25;;;1.10;;
67108;SDS011;54027;50.786;7.058;2024-03-02T13:40:19;1.92;;;0.70;;
67108;SDS011;54027;50.786;7.058;2024-03-02T13:42:45;3.72;;;1.00;;
67108;SDS011;54027;50.786;7.058;2024-03-02T13:45:11;1.92;;;1.00;;
67108;SDS011;54027;50.786;7.058;2024-03-02T13:47:38;2.53;;;1.30;;
67108;SDS011;54027;50.786;7.058;2024-03-02T13:50:03;2.75;;;0.98;;
67108;SDS011;54027;50.786;7.058;2024-03-02T13:52:30;3.58;;;1.40;;
67108;SDS011;54027;50.786;7.058;2024-03-02T13:54:55;6.45;;;1.30;;
67108;SDS011;54027;50.786;7.058;2024-03-02T13:57:21;1.50;;;0.80;;
67108;SDS011;54027;50.786;7.058;2024-03-02T13:59:46;2.58;;;0.93;;
67108;SDS011;54027;50.786;7.058;2024-03-02T14:02:12;2.65;;;0.82;;
67108;SDS011;54027;50.786;7.058;2024-03-02T14:05:01;3.65;;;0.85;;
67108;SDS011;54027;50.786;7.058;2024-03-02T14:07:28;2.22;;;0.70;;
67108;SDS011;54027;50.786;7.058;2024-03-02T14:09:53;1.40;;;0.82;;
67108;SDS011;54027;50.786;7.058;2024-03-02T14:12:19;1.67;;;1.15;;
67108;SDS011;54027;50.786;7.058;2024-03-02T14:14:44;2.63;;;0.90;;
67108;SDS011;54027;50.786;7.058;2024-03-02T14:17:09;1.33;;;1.10;;
67108;SDS011;54027;50.786;7.058;2024-03-02T14:19:39;1.67;;;0.90;;
67108;SDS011;54027;50.786;7.058;2024-03-02T14:22:05;2.05;;;0.75;;
67108;SDS011;54027;50.786;7.058;2024-03-02T14:24:30;1.75;;;1.00;;
67108;SDS011;54027;50.786;7.058;2024-03-02T14:26:55;2.72;;;0.95;;
67108;SDS011;54027;50.786;7.058;2024-03-02T14:29:22;2.25;;;1.27;;
67108;SDS011;54027;50.786;7.058;2024-03-02T14:31:48;1.38;;;0.80;;
67108;SDS011;54027;50.786;7.058;2024-03-02T14:34:13;1.63;;;0.70;;
67108;SDS011;54027;50.786;7.058;2024-03-02T14:36:40;1.25;;;0.95;;
67108;SDS011;54027;50.786;7.058;2024-03-02T14:39:06;2.20;;;0.80;;
67108;SDS011;54027;50.786;7.058;2024-03-02T14:41:35;1.52;;;0.88;;
67108;SDS011;54027;50.786;7.058;2024-03-02T14:44:00;2.83;;;1.00;;
67108;SDS011;54027;50.786;7.058;2024-03-02T14:46:26;2.00;;;1.27;;
67108;SDS011;54027;50.786;7.058;2024-03-02T14:48:51;3.20;;;2.22;;
67108;SDS011;54027;50.786;7.058;2024-03-02T14:51:17;2.78;;;1.20;;
67108;SDS011;54027;50.786;7.058;2024-03-02T14:53:42;5.25;;;1.30;;